createdAt,value
2023-02-05T00:01:25.462Z,9.14
2023-02-05T00:03:55.294Z,9.03
2023-02-05T00:06:24.923Z,8.95
2023-02-05T00:08:55.047Z,9.01
2023-02-05T00:11:25.209Z,9.09
2023-02-05T00:13:55.602Z,8.87
2023-02-05T00:16:26.541Z,9.05
2023-02-05T00:18:57.426Z,9.02
2023-02-05T00:21:27.644Z,9.06
2023-02-05T00:24:00.208Z,9.02
2023-02-05T00:26:29.794Z,9.01
2023-02-05T00:29:00.116Z,9.18
2023-02-05T00:31:30.128Z,9.19
2023-02-05T00:34:00.344Z,8.97
2023-02-05T00:36:30.492Z,8.97
2023-02-05T00:39:00.375Z,8.68
2023-02-05T00:41:30.581Z,8.81
2023-02-05T00:44:00.368Z,8.85
2023-02-05T00:46:30.485Z,8.85
2023-02-05T00:49:03.367Z,9.06
2023-02-05T00:51:33.255Z,9.10
2023-02-05T00:54:03.104Z,9.16
2023-02-05T00:56:33.353Z,9.06
2023-02-05T00:59:03.612Z,9.21
2023-02-05T01:01:33.631Z,9.17
2023-02-05T01:04:05.315Z,9.24
2023-02-05T01:06:35.144Z,9.42
2023-02-05T01:09:05.113Z,9.36
2023-02-05T01:11:35.060Z,9.31
2023-02-05T01:14:05.197Z,9.38
2023-02-05T01:16:34.949Z,9.39
2023-02-05T01:19:04.751Z,9.05
2023-02-05T01:21:36.189Z,9.19
2023-02-05T01:24:06.404Z,9.27
2023-02-05T01:26:36.199Z,9.03
2023-02-05T01:29:05.784Z,9.12
2023-02-05T01:31:35.817Z,9.17
2023-02-05T01:34:05.620Z,8.93
2023-02-05T01:36:35.404Z,9.03
2023-02-05T01:39:05.759Z,8.93
2023-02-05T01:41:38.297Z,8.81
2023-02-05T01:44:10.261Z,8.95
2023-02-05T01:46:45.101Z,8.89
2023-02-05T01:49:23.564Z,8.89
2023-02-05T01:51:54.513Z,8.90
2023-02-05T01:54:27.287Z,8.85
2023-02-05T01:57:06.156Z,9.07
2023-02-05T01:59:39.201Z,9.16
2023-02-05T02:02:10.415Z,9.27
2023-02-05T02:04:52.093Z,9.29
2023-02-05T02:07:24.800Z,8.98
2023-02-05T02:09:56.016Z,8.94
2023-02-05T02:12:28.778Z,8.86
2023-02-05T02:15:04.810Z,9.00
2023-02-05T02:17:38.951Z,8.93
2023-02-05T02:20:11.392Z,8.69
2023-02-05T02:23:00.464Z,8.52
2023-02-05T02:25:56.674Z,8.71
2023-02-05T02:28:34.699Z,8.81
2023-02-05T02:31:13.556Z,8.97
2023-02-05T02:33:53.177Z,8.89
2023-02-05T02:36:31.771Z,8.72
2023-02-05T02:39:21.077Z,8.83
2023-02-05T02:41:56.614Z,8.83
2023-02-05T02:44:31.087Z,8.73
2023-02-05T02:47:03.811Z,8.90
2023-02-05T02:49:42.432Z,8.82
2023-02-05T02:52:17.323Z,8.78
2023-02-05T02:54:49.888Z,8.61
2023-02-05T02:57:22.189Z,8.66
2023-02-05T02:59:55.188Z,8.71
2023-02-05T03:02:26.960Z,8.68
2023-02-05T03:04:59.817Z,8.54
2023-02-05T03:07:36.012Z,8.61
2023-02-05T03:10:12.887Z,8.53
2023-02-05T03:12:42.774Z,8.69
2023-02-05T03:15:12.779Z,8.64
2023-02-05T03:17:43.674Z,8.67
2023-02-05T03:20:25.815Z,8.64
2023-02-05T03:22:56.878Z,8.46
2023-02-05T03:25:29.344Z,8.60
2023-02-05T03:28:00.321Z,8.35
2023-02-05T03:30:40.893Z,8.30
2023-02-05T03:33:48.315Z,8.60
2023-02-05T03:36:32.174Z,8.55
2023-02-05T03:39:06.242Z,8.40
2023-02-05T03:41:57.631Z,8.52
2023-02-05T03:44:57.254Z,8.59
2023-02-05T03:47:54.629Z,8.45
2023-02-05T03:50:43.024Z,8.44
2023-02-05T03:53:35.502Z,8.61
2023-02-05T03:56:16.803Z,8.58
2023-02-05T03:58:50.250Z,8.65
2023-02-05T04:01:21.941Z,8.43
2023-02-05T04:03:53.379Z,8.43
2023-02-05T04:06:23.169Z,8.64
2023-02-05T04:08:53.496Z,8.51
2023-02-05T04:11:24.652Z,8.56
2023-02-05T04:13:54.985Z,8.61
2023-02-05T04:16:24.946Z,8.37
2023-02-05T04:18:55.821Z,8.37
2023-02-05T04:21:26.721Z,8.51
2023-02-05T04:23:57.016Z,8.48
2023-02-05T04:26:27.268Z,8.56
2023-02-05T04:28:58.815Z,8.74
2023-02-05T04:31:29.195Z,8.74
2023-02-05T04:33:59.658Z,8.77
2023-02-05T04:36:29.495Z,8.71
2023-02-05T04:38:59.556Z,8.60
2023-02-05T04:41:29.385Z,8.58
2023-02-05T04:43:59.497Z,8.44
2023-02-05T04:46:29.027Z,8.23
2023-02-05T04:49:02.185Z,8.51
2023-02-05T04:51:32.018Z,8.53
2023-02-05T04:54:02.333Z,8.43
2023-02-05T04:56:31.913Z,8.39
2023-02-05T04:59:01.968Z,8.34
2023-02-05T05:01:31.878Z,8.20
2023-02-05T05:04:01.699Z,8.28
2023-02-05T05:06:31.794Z,8.19
2023-02-05T05:09:01.337Z,8.29
2023-02-05T05:11:31.335Z,8.20
2023-02-05T05:14:01.110Z,8.35
2023-02-05T05:16:31.206Z,8.30
2023-02-05T05:19:01.416Z,8.19
2023-02-05T05:21:31.243Z,8.24
2023-02-05T05:24:01.327Z,8.01
2023-02-05T05:26:30.909Z,8.18
2023-02-05T05:29:00.929Z,8.09
2023-02-05T05:31:30.814Z,8.13
2023-02-05T05:34:00.643Z,8.14
2023-02-05T05:36:30.424Z,8.14
2023-02-05T05:39:01.671Z,8.21
2023-02-05T05:41:49.224Z,8.34
2023-02-05T05:44:19.100Z,8.34
2023-02-05T05:46:48.845Z,8.18
2023-02-05T05:49:18.630Z,8.18
2023-02-05T05:51:48.440Z,8.32
2023-02-05T05:54:18.570Z,8.07
2023-02-05T05:56:49.585Z,8.34
2023-02-05T05:59:19.511Z,8.11
2023-02-05T06:01:49.268Z,8.15
2023-02-05T06:04:19.073Z,7.91
2023-02-05T06:06:48.640Z,8.03
2023-02-05T06:09:20.423Z,8.14
2023-02-05T06:11:50.521Z,8.00
2023-02-05T06:14:20.341Z,7.89
2023-02-05T06:16:52.244Z,8.04
2023-02-05T06:19:22.863Z,8.22
2023-02-05T06:21:52.755Z,8.16
2023-02-05T06:24:22.302Z,8.10
2023-02-05T06:26:52.146Z,8.12
2023-02-05T06:29:22.113Z,8.09
2023-02-05T06:31:52.145Z,8.10
2023-02-05T06:34:22.569Z,8.05
2023-02-05T06:36:52.170Z,7.57
2023-02-05T06:39:25.060Z,7.52
2023-02-05T06:41:54.327Z,7.52
2023-02-05T06:44:24.349Z,7.30
2023-02-05T06:46:54.181Z,7.31
2023-02-05T06:49:24.296Z,7.08
2023-02-05T06:51:54.466Z,7.11
2023-02-05T06:54:25.479Z,7.58
2023-02-05T06:56:55.746Z,7.28
2023-02-05T06:59:25.969Z,7.28
2023-02-05T07:01:55.849Z,7.25
2023-02-05T07:04:26.916Z,7.04
2023-02-05T07:06:58.066Z,7.17
2023-02-05T07:09:28.187Z,6.83
2023-02-05T07:11:57.951Z,6.97
2023-02-05T07:14:28.194Z,7.00
2023-02-05T07:16:58.012Z,6.87
2023-02-05T07:19:28.279Z,6.74
2023-02-05T07:21:58.079Z,6.61
2023-02-05T07:24:27.673Z,6.77
2023-02-05T07:26:57.495Z,6.91
2023-02-05T07:29:28.425Z,6.88
2023-02-05T07:31:58.369Z,6.67
2023-02-05T07:34:28.313Z,6.79
2023-02-05T07:36:58.092Z,6.79
2023-02-05T07:39:31.207Z,6.76
2023-02-05T07:42:01.835Z,6.67
2023-02-05T07:44:33.374Z,6.98
2023-02-05T07:47:03.339Z,6.71
2023-02-05T07:49:33.409Z,6.81
2023-02-05T07:52:03.465Z,6.97
2023-02-05T07:54:32.936Z,6.97
2023-02-05T07:57:04.910Z,6.93
2023-02-05T07:59:35.111Z,7.01
2023-02-05T08:02:04.940Z,6.85
2023-02-05T08:04:34.671Z,7.05
2023-02-05T08:07:04.635Z,7.05
2023-02-05T08:09:34.417Z,7.05
2023-02-05T08:12:04.288Z,6.93
2023-02-05T08:14:34.245Z,6.95
2023-02-05T08:17:06.398Z,7.27
2023-02-05T08:19:36.468Z,7.09
2023-02-05T08:22:09.352Z,6.92
2023-02-05T08:24:39.228Z,7.30
2023-02-05T08:27:09.030Z,7.20
2023-02-05T08:29:38.766Z,7.06
2023-02-05T08:32:08.543Z,7.06
2023-02-05T08:34:38.393Z,7.18
2023-02-05T08:37:08.541Z,7.33
2023-02-05T08:39:38.766Z,7.18
2023-02-05T08:42:08.694Z,7.29
2023-02-05T08:44:39.305Z,7.29
2023-02-05T08:47:09.093Z,7.18
2023-02-05T08:49:39.059Z,7.46
2023-02-05T08:52:08.878Z,7.38
2023-02-05T08:54:42.930Z,7.26
2023-02-05T08:57:13.117Z,7.53
2023-02-05T08:59:42.983Z,7.26
2023-02-05T09:02:16.692Z,7.26
2023-02-05T09:04:46.537Z,7.22
2023-02-05T09:07:19.399Z,7.34
2023-02-05T09:09:49.267Z,7.46
2023-02-05T09:12:19.569Z,7.53
2023-02-05T09:14:49.560Z,7.10
2023-02-05T09:17:19.410Z,6.98
2023-02-05T09:19:49.357Z,7.03
2023-02-05T09:22:20.855Z,7.16
2023-02-05T09:24:50.749Z,7.29
2023-02-05T09:27:20.525Z,7.36
2023-02-05T09:29:50.635Z,7.38
2023-02-05T09:32:20.365Z,7.38
2023-02-05T09:34:50.435Z,7.52
2023-02-05T09:37:19.916Z,7.42
2023-02-05T09:40:19.452Z,7.35
2023-02-05T09:42:42.024Z,7.35
2023-02-05T09:45:17.477Z,7.72
2023-02-05T09:47:59.299Z,7.56
2023-02-05T09:50:31.356Z,7.61
2023-02-05T09:53:06.869Z,7.61
2023-02-05T09:55:40.098Z,8.03
2023-02-05T09:58:20.105Z,7.77
2023-02-05T10:01:04.711Z,7.82
2023-02-05T10:04:03.108Z,8.00
2023-02-05T10:06:50.763Z,7.83
2023-02-05T10:09:38.399Z,7.85
2023-02-05T10:15:11.539Z,8.12
2023-02-05T10:17:47.311Z,7.86
2023-02-05T10:20:27.738Z,8.36
2023-02-05T10:23:01.701Z,8.04
2023-02-05T10:26:02.613Z,8.24
2023-02-05T10:28:35.549Z,8.24
2023-02-05T10:31:11.160Z,8.08
2023-02-05T10:33:47.007Z,8.14
2023-02-05T10:36:19.846Z,7.88
2023-02-05T10:38:51.976Z,7.85
2023-02-05T10:41:27.288Z,8.21
2023-02-05T10:44:18.832Z,8.03
2023-02-05T10:46:55.236Z,8.18
2023-02-05T10:49:47.294Z,8.06
2023-02-05T10:52:17.800Z,7.95
2023-02-05T10:54:48.280Z,8.52
2023-02-05T10:57:23.613Z,8.28
2023-02-05T10:59:58.837Z,8.14
2023-02-05T11:02:31.627Z,8.29
2023-02-05T11:05:03.918Z,8.36
2023-02-05T11:07:39.559Z,8.60
2023-02-05T11:10:26.381Z,8.54
2023-02-05T11:13:04.972Z,8.54
2023-02-05T11:15:35.342Z,8.44
2023-02-05T11:18:07.301Z,8.25
2023-02-05T11:20:39.520Z,8.41
2023-02-05T11:23:23.236Z,8.26
2023-02-05T11:25:58.676Z,8.53
2023-02-05T11:28:30.788Z,8.32
2023-02-05T11:31:03.382Z,8.47
2023-02-05T11:33:33.217Z,8.52
2023-02-05T11:36:09.249Z,8.52
2023-02-05T11:38:45.302Z,8.63
2023-02-05T11:41:18.375Z,8.63
2023-02-05T11:43:53.595Z,8.89
2023-02-05T11:46:25.449Z,8.73
2023-02-05T11:49:00.160Z,8.50
2023-02-05T11:51:38.420Z,8.49
2023-02-05T11:54:20.875Z,8.44
2023-02-05T11:57:16.712Z,8.55
2023-02-05T12:00:15.260Z,8.51
2023-02-05T12:02:45.772Z,8.75
2023-02-05T12:05:18.722Z,8.93
2023-02-05T12:08:13.667Z,8.83
2023-02-05T12:11:00.008Z,8.72
2023-02-05T12:13:49.012Z,8.61
2023-02-05T12:16:41.142Z,8.88
2023-02-05T12:19:16.825Z,8.88
2023-02-05T12:21:55.179Z,9.14
2023-02-05T12:24:48.748Z,8.87
2023-02-05T12:27:37.892Z,8.85
2023-02-05T12:30:27.183Z,9.25
2023-02-05T12:33:21.232Z,9.01
2023-02-05T12:35:59.481Z,9.01
2023-02-05T12:38:47.106Z,9.01
2023-02-05T12:41:40.848Z,9.12
2023-02-05T12:44:19.406Z,9.39
2023-02-05T12:47:15.845Z,9.01
2023-02-05T12:50:04.863Z,8.92
2023-02-05T12:52:59.460Z,9.27
2023-02-05T12:55:59.174Z,9.09
2023-02-05T12:58:38.386Z,9.30
2023-02-05T13:01:11.702Z,9.59
2023-02-05T13:03:50.292Z,10.04
2023-02-05T13:06:27.545Z,10.39
2023-02-05T13:09:18.750Z,10.19
2023-02-05T13:11:51.540Z,10.28
2023-02-05T13:14:30.078Z,10.22
2023-02-05T13:17:08.294Z,10.22
2023-02-05T13:19:44.110Z,10.00
2023-02-05T13:22:42.956Z,9.41
2023-02-05T13:25:51.018Z,9.44
2023-02-05T13:28:40.805Z,9.77
2023-02-05T13:31:16.105Z,9.08
2023-02-05T13:33:46.556Z,9.09
2023-02-05T13:36:34.083Z,9.19
2023-02-05T13:39:26.483Z,9.21
2023-02-05T13:42:00.632Z,9.17
2023-02-05T13:44:55.548Z,9.47
2023-02-05T13:47:33.880Z,9.23
2023-02-05T13:50:30.873Z,9.82
2023-02-05T13:53:18.585Z,9.67
2023-02-05T13:56:24.596Z,9.66
2023-02-05T13:58:57.642Z,9.63
2023-02-05T14:01:31.904Z,9.70
2023-02-05T14:04:07.647Z,9.53
2023-02-05T14:06:43.159Z,9.53
2023-02-05T14:09:24.743Z,9.38
2023-02-05T14:12:03.835Z,9.76
2023-02-05T14:14:38.208Z,9.80
2023-02-05T14:17:35.094Z,9.59
2023-02-05T14:23:04.850Z,9.76
2023-02-05T14:25:48.085Z,9.22
2023-02-05T14:28:32.553Z,9.44
2023-02-05T14:31:05.254Z,9.15
2023-02-05T14:33:38.613Z,9.34
2023-02-05T14:36:24.260Z,9.54
2023-02-05T14:39:08.698Z,9.18
2023-02-05T14:41:43.134Z,9.33
2023-02-05T14:44:20.031Z,9.26
2023-02-05T14:47:07.425Z,9.22
2023-02-05T14:49:46.821Z,9.21
2023-02-05T14:52:42.264Z,8.80
2023-02-05T14:55:17.799Z,9.32
2023-02-05T14:57:53.264Z,9.25
2023-02-05T15:00:41.674Z,9.30
2023-02-05T15:03:22.855Z,9.39
2023-02-05T15:06:01.132Z,9.05
2023-02-05T15:08:42.271Z,9.14
2023-02-05T15:11:47.650Z,9.32
2023-02-05T15:14:24.368Z,9.48
2023-02-05T15:17:10.456Z,9.47
2023-02-05T15:19:46.002Z,9.36
2023-02-05T15:22:37.857Z,9.28
2023-02-05T15:25:32.996Z,9.38
2023-02-05T15:31:25.641Z,9.22
2023-02-05T15:34:01.103Z,9.22
2023-02-05T15:36:42.705Z,9.36
2023-02-05T15:39:19.851Z,9.23
2023-02-05T15:41:50.358Z,9.56
2023-02-05T15:44:25.813Z,9.25
2023-02-05T15:46:56.897Z,9.08
2023-02-05T15:49:32.625Z,9.46
2023-02-05T15:52:02.539Z,9.14
2023-02-05T15:54:35.441Z,9.10
2023-02-05T15:57:06.386Z,8.90
2023-02-05T15:59:36.607Z,8.76
2023-02-05T16:02:11.218Z,8.77
2023-02-05T16:04:41.076Z,8.87
2023-02-05T16:07:23.274Z,8.78
2023-02-05T16:09:58.866Z,8.58
2023-02-05T16:12:30.452Z,8.38
2023-02-05T16:15:02.630Z,8.38
2023-02-05T16:17:44.728Z,8.56
2023-02-05T16:20:23.786Z,8.59
2023-02-05T16:23:02.126Z,8.20
2023-02-05T16:25:43.607Z,8.27
2023-02-05T16:28:37.205Z,8.47
2023-02-05T16:31:08.455Z,8.32
2023-02-05T16:33:44.109Z,8.16
2023-02-05T16:36:26.054Z,8.13
2023-02-05T16:39:01.829Z,8.10
2023-02-05T16:41:37.533Z,8.10
2023-02-05T16:44:10.444Z,7.98
2023-02-05T16:46:40.677Z,8.09
2023-02-05T16:49:28.345Z,7.95
2023-02-05T16:51:58.077Z,7.92
2023-02-05T16:54:31.035Z,7.75
2023-02-05T16:57:03.847Z,7.78
2023-02-05T16:59:36.709Z,7.78
2023-02-05T17:02:09.676Z,7.93
2023-02-05T17:04:39.992Z,7.87
2023-02-05T17:07:18.370Z,7.81
2023-02-05T17:09:48.549Z,7.59
2023-02-05T17:12:25.215Z,7.56
2023-02-05T17:15:01.997Z,7.67
2023-02-05T17:17:33.197Z,7.73
2023-02-05T17:20:05.597Z,7.40
2023-02-05T17:22:35.868Z,7.46
2023-02-05T17:25:07.870Z,7.39
2023-02-05T17:27:41.069Z,7.45
2023-02-05T17:30:13.747Z,7.33
2023-02-05T17:32:44.470Z,7.35
2023-02-05T17:35:15.917Z,7.32
2023-02-05T17:37:45.734Z,7.34
2023-02-05T17:40:17.225Z,7.20
2023-02-05T17:42:48.040Z,7.15
2023-02-05T17:45:26.326Z,7.15
2023-02-05T17:47:56.369Z,7.03
2023-02-05T17:50:26.083Z,7.09
2023-02-05T17:52:55.825Z,7.01
2023-02-05T17:55:25.813Z,7.13
2023-02-05T17:57:56.097Z,7.24
2023-02-05T18:00:30.632Z,7.04
2023-02-05T18:03:00.737Z,7.12
2023-02-05T18:05:30.864Z,6.92
2023-02-05T18:08:01.172Z,6.86
2023-02-05T18:10:32.724Z,6.82
2023-02-05T18:13:03.033Z,6.75
2023-02-05T18:15:33.677Z,6.68
2023-02-05T18:18:03.688Z,6.67
2023-02-05T18:20:34.217Z,6.76
2023-02-05T18:23:04.194Z,6.96
2023-02-05T18:25:34.078Z,6.72
2023-02-05T18:28:05.098Z,6.70
2023-02-05T18:30:35.463Z,6.69
2023-02-05T18:33:07.121Z,6.85
2023-02-05T18:35:38.818Z,6.64
2023-02-05T18:38:10.008Z,6.71
2023-02-05T18:40:42.105Z,6.63
2023-02-05T18:43:13.196Z,6.79
2023-02-05T18:45:43.159Z,6.63
2023-02-05T18:48:13.083Z,6.52
2023-02-05T18:50:42.891Z,6.41
2023-02-05T18:53:12.641Z,6.79
2023-02-05T18:55:42.549Z,6.62
2023-02-05T18:58:12.147Z,6.62
2023-02-05T19:00:42.821Z,6.49
2023-02-05T19:03:12.702Z,6.60
2023-02-05T19:05:42.696Z,6.48
2023-02-05T19:08:12.310Z,6.48
2023-02-05T19:10:42.160Z,6.52
2023-02-05T19:13:12.023Z,6.36
2023-02-05T19:15:41.928Z,6.52
2023-02-05T19:18:11.616Z,6.58
2023-02-05T19:20:41.435Z,6.55
2023-02-05T19:23:11.325Z,6.34
2023-02-05T19:25:41.151Z,6.33
2023-02-05T19:28:11.080Z,6.41
2023-02-05T19:30:41.086Z,6.42
2023-02-05T19:33:10.900Z,6.12
2023-02-05T19:35:41.256Z,6.37
2023-02-05T19:38:11.598Z,6.36
2023-02-05T19:40:41.402Z,6.20
2023-02-05T19:43:11.243Z,6.09
2023-02-05T19:45:41.330Z,6.12
2023-02-05T19:48:12.588Z,5.99
2023-02-05T19:50:43.499Z,6.10
2023-02-05T19:53:13.342Z,5.96
2023-02-05T19:55:43.134Z,5.99
2023-02-05T19:58:12.917Z,6.00
2023-02-05T20:00:42.686Z,6.00
2023-02-05T20:03:12.511Z,6.08
2023-02-05T20:05:43.923Z,6.00
2023-02-05T20:08:13.678Z,5.94
2023-02-05T20:10:43.436Z,5.87
2023-02-05T20:13:13.887Z,5.94
2023-02-05T20:15:43.677Z,5.70
2023-02-05T20:18:13.178Z,5.77
2023-02-05T20:20:43.314Z,5.80
2023-02-05T20:23:13.166Z,5.80
2023-02-05T20:25:42.966Z,5.63
2023-02-05T20:28:12.916Z,5.70
2023-02-05T20:31:00.739Z,5.67
2023-02-05T20:33:30.656Z,5.65
2023-02-05T20:36:05.854Z,5.65
2023-02-05T20:38:36.312Z,5.62
2023-02-05T20:41:17.090Z,5.62
2023-02-05T20:43:46.976Z,5.57
2023-02-05T20:46:17.698Z,5.72
2023-02-05T20:48:48.467Z,5.62
2023-02-05T20:51:22.180Z,5.59
2023-02-05T20:53:52.583Z,5.44
2023-02-05T20:56:22.834Z,5.53
2023-02-05T20:58:53.237Z,5.50
2023-02-05T21:01:28.722Z,5.55
2023-02-05T21:04:00.849Z,5.24
2023-02-05T21:06:36.338Z,5.28
2023-02-05T21:09:07.692Z,5.28
2023-02-05T21:11:38.635Z,5.34
2023-02-05T21:14:10.305Z,5.47
2023-02-05T21:16:40.783Z,5.33
2023-02-05T21:19:12.234Z,5.23
2023-02-05T21:21:42.362Z,5.39
2023-02-05T21:24:17.259Z,5.10
2023-02-05T21:26:49.283Z,5.10
2023-02-05T21:29:21.481Z,5.29
2023-02-05T21:31:54.859Z,5.44
2023-02-05T21:34:27.685Z,5.34
2023-02-05T21:36:57.773Z,5.36
2023-02-05T21:39:27.619Z,5.38
2023-02-05T21:41:57.709Z,5.25
2023-02-05T21:44:27.465Z,5.22
2023-02-05T21:46:57.524Z,5.20
2023-02-05T21:49:27.673Z,5.20
2023-02-05T21:51:57.390Z,5.25
2023-02-05T21:54:26.865Z,5.27
2023-02-05T21:56:56.659Z,5.32
2023-02-05T21:59:26.153Z,5.17
2023-02-05T22:01:55.941Z,4.93
2023-02-05T22:04:25.540Z,5.04
2023-02-05T22:06:55.415Z,5.04
2023-02-05T22:09:25.186Z,5.15
2023-02-05T22:11:56.411Z,5.01
2023-02-05T22:14:25.956Z,4.99
2023-02-05T22:16:56.064Z,4.99
2023-02-05T22:19:26.464Z,4.88
2023-02-05T22:21:56.289Z,4.79
2023-02-05T22:24:25.827Z,5.13
2023-02-05T22:26:55.686Z,5.07
2023-02-05T22:29:25.284Z,4.84
2023-02-05T22:31:55.392Z,4.72
2023-02-05T22:34:25.329Z,4.72
2023-02-05T22:36:55.100Z,4.80
2023-02-05T22:39:24.856Z,4.52
2023-02-05T22:41:54.992Z,4.49
2023-02-05T22:44:24.587Z,4.40
2023-02-05T22:46:54.620Z,4.32
2023-02-05T22:49:24.118Z,4.37
2023-02-05T22:51:54.074Z,4.44
2023-02-05T22:54:24.060Z,4.54
2023-02-05T22:56:54.254Z,4.45
2023-02-05T22:59:24.147Z,4.37
2023-02-05T23:01:53.894Z,4.58
2023-02-05T23:04:23.388Z,4.47
2023-02-05T23:06:53.142Z,4.38
2023-02-05T23:09:23.073Z,4.43
2023-02-05T23:11:55.441Z,4.40
2023-02-05T23:14:24.946Z,4.42
2023-02-05T23:16:56.565Z,4.24
2023-02-05T23:19:27.103Z,4.21
2023-02-05T23:21:56.863Z,4.32
2023-02-05T23:24:26.641Z,4.25
2023-02-05T23:26:56.722Z,4.24
2023-02-05T23:29:27.096Z,4.35
2023-02-05T23:31:56.587Z,4.19
2023-02-05T23:34:26.436Z,4.39
2023-02-05T23:36:56.625Z,4.39
2023-02-05T23:39:26.192Z,4.31
2023-02-05T23:41:55.946Z,4.19
2023-02-05T23:44:25.855Z,4.26
2023-02-05T23:46:55.674Z,4.17
2023-02-05T23:49:25.906Z,4.28
2023-02-05T23:51:56.244Z,4.30
2023-02-05T23:54:25.878Z,4.22
2023-02-05T23:56:56.677Z,4.25
2023-02-05T23:59:26.423Z,4.19
